createdAt,value
2018-12-14T00:02:34.174Z,68.78
2018-12-14T00:04:04.304Z,68.85
2018-12-14T00:05:34.308Z,67.89
2018-12-14T00:07:04.316Z,68.09
2018-12-14T00:08:34.194Z,67.88
2018-12-14T00:10:04.912Z,67.31
2018-12-14T00:11:35.060Z,68.79
2018-12-14T00:13:05.100Z,69.25
2018-12-14T00:14:34.990Z,68.35
2018-12-14T00:16:05.116Z,67.34
2018-12-14T00:17:35.003Z,66.35
2018-12-14T00:19:05.082Z,67.12
2018-12-14T00:20:34.951Z,66.94
2018-12-14T00:22:05.087Z,68.52
2018-12-14T00:23:35.003Z,66.77
2018-12-14T00:25:05.618Z,67.11
2018-12-14T00:26:35.506Z,67.82
2018-12-14T00:28:05.611Z,67.08
2018-12-14T00:29:35.516Z,67.87
2018-12-14T00:31:05.416Z,67.59
2018-12-14T00:32:35.518Z,67.79
2018-12-14T00:34:05.423Z,68.02
2018-12-14T00:35:35.427Z,67.97
2018-12-14T00:37:05.318Z,67.73
2018-12-14T00:38:43.279Z,67.87
2018-12-14T00:40:13.390Z,68.21
2018-12-14T00:41:43.289Z,68.01
2018-12-14T00:43:13.172Z,69.07
2018-12-14T00:44:43.074Z,68.68
2018-12-14T00:46:13.200Z,68.16
2018-12-14T00:47:43.203Z,68.07
2018-12-14T00:49:13.318Z,68.55
2018-12-14T00:50:43.195Z,68.42
2018-12-14T00:52:13.186Z,69.38
2018-12-14T00:53:43.076Z,67.64
2018-12-14T00:55:12.963Z,68.28
2018-12-14T00:56:42.847Z,68.33
2018-12-14T00:58:12.730Z,68.02
2018-12-14T00:59:42.627Z,67.53
2018-12-14T01:01:12.511Z,67.70
2018-12-14T01:02:42.407Z,67.48
2018-12-14T01:04:12.303Z,67.74
2018-12-14T01:05:43.066Z,67.92
2018-12-14T01:07:13.063Z,67.67
2018-12-14T01:08:42.956Z,68.03
2018-12-14T01:10:12.990Z,67.94
2018-12-14T01:11:43.126Z,68.40
2018-12-14T01:13:13.015Z,67.84
2018-12-14T01:14:42.902Z,68.01
2018-12-14T01:16:13.006Z,67.01
2018-12-14T01:17:42.883Z,67.25
2018-12-14T01:19:12.769Z,67.52
2018-12-14T01:20:42.674Z,67.46
2018-12-14T01:22:12.555Z,68.37
2018-12-14T01:23:42.563Z,68.15
2018-12-14T01:25:12.571Z,68.01
2018-12-14T01:26:42.458Z,68.34
2018-12-14T01:28:12.351Z,67.77
2018-12-14T01:29:42.271Z,67.25
2018-12-14T01:31:12.158Z,67.59
2018-12-14T01:32:42.174Z,67.38
2018-12-14T01:34:12.050Z,68.38
2018-12-14T01:35:41.945Z,68.20
2018-12-14T01:37:20.034Z,67.29
2018-12-14T01:38:49.910Z,68.51
2018-12-14T01:40:19.815Z,67.92
2018-12-14T01:41:49.822Z,67.99
2018-12-14T01:43:19.714Z,67.61
2018-12-14T01:44:49.612Z,68.42
2018-12-14T01:46:19.495Z,68.72
2018-12-14T01:47:49.490Z,68.60
2018-12-14T01:49:19.376Z,67.07
2018-12-14T01:50:49.271Z,68.51
2018-12-14T01:52:19.987Z,67.52
2018-12-14T01:53:49.974Z,68.04
2018-12-14T01:55:20.010Z,68.88
2018-12-14T01:56:50.002Z,68.63
2018-12-14T01:58:19.887Z,67.99
2018-12-14T01:59:49.783Z,69.04
2018-12-14T02:01:19.663Z,69.23
2018-12-14T02:02:49.542Z,68.47
2018-12-14T02:04:19.540Z,69.32
2018-12-14T02:05:49.529Z,69.02
2018-12-14T02:07:19.522Z,68.68
2018-12-14T02:08:49.416Z,69.09
2018-12-14T02:10:19.313Z,67.86
2018-12-14T02:11:49.217Z,69.00
2018-12-14T02:13:19.115Z,69.42
2018-12-14T02:14:49.012Z,68.47
2018-12-14T02:16:18.899Z,67.55
2018-12-14T02:17:48.775Z,67.78
2018-12-14T02:19:18.671Z,68.16
2018-12-14T02:20:48.595Z,67.68
2018-12-14T02:22:46.418Z,67.30
2018-12-14T02:24:16.308Z,68.02
2018-12-14T02:25:46.311Z,68.24
2018-12-14T02:27:16.190Z,66.95
2018-12-14T02:28:46.106Z,67.74
2018-12-14T02:30:27.522Z,67.90
2018-12-14T02:31:57.403Z,68.31
2018-12-14T02:33:27.275Z,68.78
2018-12-14T02:34:57.276Z,67.81
2018-12-14T02:36:27.286Z,66.87
2018-12-14T02:37:57.399Z,66.87
2018-12-14T02:39:27.278Z,68.62
2018-12-14T02:40:57.165Z,68.02
2018-12-14T02:42:27.174Z,67.63
2018-12-14T02:43:57.170Z,68.33
2018-12-14T02:45:27.375Z,67.81
2018-12-14T02:46:57.251Z,67.78
2018-12-14T02:48:27.835Z,69.33
2018-12-14T02:49:57.745Z,68.83
2018-12-14T02:51:27.738Z,68.08
2018-12-14T02:52:57.610Z,68.05
2018-12-14T02:54:27.491Z,68.86
2018-12-14T02:55:57.397Z,67.48
2018-12-14T02:57:27.404Z,67.05
2018-12-14T02:58:57.300Z,68.21
2018-12-14T03:00:27.447Z,68.51
2018-12-14T03:01:57.463Z,69.14
2018-12-14T03:03:27.498Z,69.20
2018-12-14T03:04:57.412Z,67.15
2018-12-14T03:06:27.298Z,69.09
2018-12-14T03:07:57.324Z,68.54
2018-12-14T03:09:27.206Z,67.40
2018-12-14T03:10:57.112Z,67.94
2018-12-14T03:12:27.117Z,68.28
2018-12-14T03:13:57.236Z,68.52
2018-12-14T03:15:27.155Z,69.11
2018-12-14T03:16:57.268Z,67.23
2018-12-14T03:18:27.371Z,67.49
2018-12-14T03:19:57.607Z,69.00
2018-12-14T03:21:27.490Z,68.96
2018-12-14T03:22:57.378Z,68.53
2018-12-14T03:24:27.277Z,68.09
2018-12-14T03:25:57.426Z,69.11
2018-12-14T03:27:27.321Z,68.70
2018-12-14T03:28:57.215Z,67.59
2018-12-14T03:30:27.193Z,68.76
2018-12-14T03:31:57.353Z,68.17
2018-12-14T03:33:27.349Z,68.88
2018-12-14T03:34:57.342Z,67.83
2018-12-14T03:36:27.231Z,68.21
2018-12-14T03:37:57.127Z,68.83
2018-12-14T03:39:27.012Z,68.44
2018-12-14T03:40:56.906Z,68.67
2018-12-14T03:42:33.930Z,69.47
2018-12-14T03:43:58.803Z,68.11
2018-12-14T03:45:28.699Z,67.68
2018-12-14T03:46:58.623Z,67.65
2018-12-14T03:48:28.500Z,68.40
2018-12-14T03:49:58.375Z,67.98
2018-12-14T03:51:28.407Z,67.79
2018-12-14T03:52:58.270Z,67.69
2018-12-14T03:54:28.262Z,67.61
2018-12-14T03:55:58.261Z,67.68
2018-12-14T03:57:28.131Z,67.60
2018-12-14T03:58:58.003Z,68.43
2018-12-14T04:00:28.211Z,68.50
2018-12-14T04:01:58.219Z,68.23
2018-12-14T04:03:28.095Z,68.11
2018-12-14T04:04:57.950Z,67.28
2018-12-14T04:06:27.822Z,67.95
2018-12-14T04:07:57.706Z,68.94
2018-12-14T04:09:27.665Z,68.68
2018-12-14T04:10:57.560Z,68.57
2018-12-14T04:12:27.544Z,68.30
2018-12-14T04:13:57.427Z,68.99
2018-12-14T04:15:27.299Z,67.96
2018-12-14T04:16:57.182Z,68.86
2018-12-14T04:18:27.068Z,68.22
2018-12-14T04:19:56.942Z,69.44
2018-12-14T04:21:26.936Z,69.00
2018-12-14T04:22:56.903Z,68.66
2018-12-14T04:24:26.776Z,69.57
2018-12-14T04:25:56.668Z,69.05
2018-12-14T04:27:26.520Z,69.65
2018-12-14T04:28:56.395Z,68.32
2018-12-14T04:30:26.278Z,68.17
2018-12-14T04:31:56.155Z,68.44
2018-12-14T04:33:26.418Z,68.16
2018-12-14T04:34:56.279Z,67.74
2018-12-14T04:36:26.280Z,68.03
2018-12-14T04:37:56.373Z,68.99
2018-12-14T04:39:26.254Z,68.56
2018-12-14T04:40:56.489Z,69.25
2018-12-14T04:42:26.638Z,68.55
2018-12-14T04:43:56.507Z,68.10
2018-12-14T04:45:26.639Z,68.95
2018-12-14T04:46:57.032Z,68.18
2018-12-14T04:48:27.054Z,68.74
2018-12-14T04:49:57.052Z,69.77
2018-12-14T04:51:26.925Z,68.66
2018-12-14T04:52:56.795Z,68.05
2018-12-14T04:54:26.696Z,69.06
2018-12-14T04:55:56.790Z,68.48
2018-12-14T04:57:26.774Z,69.54
2018-12-14T04:58:57.039Z,69.07
2018-12-14T05:00:27.035Z,69.21
2018-12-14T05:01:56.910Z,69.12
2018-12-14T05:03:26.781Z,67.90
2018-12-14T05:04:56.748Z,68.48
2018-12-14T05:06:26.730Z,68.74
2018-12-14T05:07:56.607Z,69.25
2018-12-14T05:09:26.574Z,68.72
2018-12-14T05:10:56.576Z,69.09
2018-12-14T05:12:26.682Z,68.97
2018-12-14T05:13:56.554Z,68.61
2018-12-14T05:15:26.449Z,69.47
2018-12-14T05:16:56.327Z,69.04
2018-12-14T05:18:26.414Z,69.07
2018-12-14T05:19:56.319Z,68.30
2018-12-14T05:21:26.314Z,68.81
2018-12-14T05:22:56.306Z,68.06
2018-12-14T05:24:26.171Z,67.96
2018-12-14T05:25:56.090Z,68.68
2018-12-14T05:27:26.109Z,69.01
2018-12-14T05:28:56.111Z,68.87
2018-12-14T05:30:26.114Z,68.79
2018-12-14T05:31:56.009Z,69.03
2018-12-14T05:33:26.046Z,68.56
2018-12-14T05:34:55.911Z,68.47
2018-12-14T05:36:25.807Z,68.92
2018-12-14T05:37:55.675Z,69.59
2018-12-14T05:39:25.555Z,68.72
2018-12-14T05:40:55.444Z,69.05
2018-12-14T05:42:25.314Z,68.85
2018-12-14T05:43:55.180Z,68.87
2018-12-14T05:45:25.090Z,69.00
2018-12-14T05:46:54.969Z,68.88
2018-12-14T05:48:24.855Z,68.32
2018-12-14T05:49:54.751Z,68.73
2018-12-14T05:51:24.758Z,68.02
2018-12-14T05:52:54.656Z,68.25
2018-12-14T05:54:24.640Z,68.52
2018-12-14T05:55:54.547Z,68.19
2018-12-14T05:57:24.430Z,68.64
2018-12-14T05:58:54.347Z,67.31
2018-12-14T06:00:24.246Z,67.73
2018-12-14T06:01:54.143Z,68.33
2018-12-14T06:03:24.255Z,68.78
2018-12-14T06:04:54.154Z,68.59
2018-12-14T06:06:24.043Z,68.68
2018-12-14T06:07:53.931Z,68.79
2018-12-14T06:09:23.831Z,68.39
2018-12-14T06:10:53.719Z,69.62
2018-12-14T06:12:23.742Z,68.71
2018-12-14T06:14:10.415Z,69.02
2018-12-14T06:15:40.438Z,67.70
2018-12-14T06:17:10.438Z,69.07
2018-12-14T06:18:40.319Z,68.81
2018-12-14T06:20:10.210Z,68.66
2018-12-14T06:21:40.112Z,70.01
2018-12-14T06:23:10.008Z,69.73
2018-12-14T06:24:39.991Z,69.71
2018-12-14T06:26:09.902Z,68.43
2018-12-14T06:27:39.782Z,68.51
2018-12-14T06:29:09.667Z,68.26
2018-12-14T06:30:39.566Z,68.18
2018-12-14T06:32:09.489Z,68.97
2018-12-14T06:33:39.374Z,67.57
2018-12-14T06:35:09.379Z,69.30
2018-12-14T06:36:39.275Z,68.53
2018-12-14T06:38:09.160Z,67.77
2018-12-14T06:39:39.055Z,69.15
2018-12-14T06:41:09.064Z,68.07
2018-12-14T06:42:38.963Z,69.44
2018-12-14T06:44:08.844Z,68.93
2018-12-14T06:45:38.741Z,68.21
2018-12-14T06:47:08.644Z,68.96
2018-12-14T06:48:39.231Z,68.94
2018-12-14T06:50:09.123Z,67.88
2018-12-14T06:51:39.034Z,69.41
2018-12-14T06:53:09.263Z,69.71
2018-12-14T06:54:39.139Z,69.36
2018-12-14T06:56:09.022Z,70.04
2018-12-14T06:57:39.147Z,70.20
2018-12-14T06:59:09.189Z,69.12
2018-12-14T07:00:39.132Z,68.53
2018-12-14T07:02:09.155Z,69.42
2018-12-14T07:03:39.058Z,69.34
2018-12-14T07:05:09.033Z,69.14
2018-12-14T07:06:38.966Z,68.46
2018-12-14T07:08:08.939Z,69.11
2018-12-14T07:09:38.871Z,68.03
2018-12-14T07:11:08.792Z,68.00
2018-12-14T07:12:38.749Z,67.09
2018-12-14T07:14:08.659Z,67.39
2018-12-14T07:15:38.768Z,68.16
2018-12-14T07:17:08.716Z,68.68
2018-12-14T07:18:38.871Z,67.65
2018-12-14T07:20:09.142Z,68.03
2018-12-14T07:21:39.365Z,68.14
2018-12-14T07:23:09.356Z,66.86
2018-12-14T07:24:39.484Z,67.89
2018-12-14T07:26:09.396Z,69.28
2018-12-14T07:28:00.442Z,68.73
2018-12-14T07:29:30.354Z,68.86
2018-12-14T07:31:00.352Z,69.16
2018-12-14T07:32:30.287Z,68.81
2018-12-14T07:34:00.354Z,69.01
2018-12-14T07:35:30.287Z,67.67
2018-12-14T07:37:00.256Z,68.25
2018-12-14T07:38:30.508Z,68.89
2018-12-14T07:40:00.462Z,68.36
2018-12-14T07:41:30.552Z,68.28
2018-12-14T07:43:00.530Z,68.98
2018-12-14T07:44:30.642Z,68.82
2018-12-14T07:46:00.767Z,68.95
2018-12-14T07:47:30.774Z,68.04
2018-12-14T07:49:00.721Z,67.92
2018-12-14T07:50:30.683Z,68.67
2018-12-14T07:52:00.657Z,68.24
2018-12-14T07:53:30.764Z,68.75
2018-12-14T07:55:00.747Z,69.12
2018-12-14T07:56:30.787Z,68.57
2018-12-14T07:58:00.831Z,68.47
2018-12-14T07:59:30.785Z,69.06
2018-12-14T08:01:00.868Z,68.50
2018-12-14T08:02:32.031Z,68.79
2018-12-14T08:04:02.218Z,67.31
2018-12-14T08:05:32.274Z,67.65
2018-12-14T08:07:02.463Z,68.75
2018-12-14T08:08:32.528Z,68.41
2018-12-14T08:10:03.639Z,67.58
2018-12-14T08:11:33.747Z,68.00
2018-12-14T08:13:04.079Z,68.13
2018-12-14T08:14:34.040Z,67.58
2018-12-14T08:16:04.151Z,68.05
2018-12-14T08:17:34.211Z,66.66
2018-12-14T08:19:06.333Z,68.86
2018-12-14T08:20:36.544Z,67.20
2018-12-14T08:22:14.015Z,67.84
2018-12-14T08:23:44.467Z,67.02
2018-12-14T08:25:14.666Z,68.29
2018-12-14T08:26:44.665Z,67.63
2018-12-14T08:28:14.698Z,68.34
2018-12-14T08:29:44.696Z,67.79
2018-12-14T08:31:14.801Z,68.48
2018-12-14T08:32:44.799Z,68.11
2018-12-14T08:34:14.868Z,68.19
2018-12-14T08:35:44.874Z,68.52
2018-12-14T08:37:14.773Z,67.17
2018-12-14T09:29:17.442Z,67.22
2018-12-14T09:30:47.314Z,67.94
2018-12-14T09:32:17.187Z,66.87
2018-12-14T09:33:47.305Z,67.11
2018-12-14T09:35:17.251Z,66.15
2018-12-14T09:36:47.399Z,66.31
2018-12-14T09:38:17.406Z,66.41
2018-12-14T09:39:47.535Z,66.52
2018-12-14T09:41:17.878Z,66.44
2018-12-14T09:42:48.009Z,66.77
2018-12-14T09:44:18.041Z,66.00
2018-12-14T09:45:48.186Z,66.50
2018-12-14T09:47:18.194Z,65.19
2018-12-14T09:48:48.205Z,66.08
2018-12-14T09:50:18.279Z,65.51
2018-12-14T09:51:48.277Z,66.41
2018-12-14T09:53:18.366Z,65.66
2018-12-14T09:54:48.376Z,65.80
2018-12-14T09:56:18.403Z,65.40
2018-12-14T09:57:48.512Z,64.96
2018-12-14T09:59:18.613Z,66.51
2018-12-14T10:00:48.599Z,64.79
2018-12-14T10:02:18.628Z,65.39
2018-12-14T10:03:48.890Z,65.49
2018-12-14T10:05:19.055Z,66.43
2018-12-14T10:06:49.188Z,66.64
2018-12-14T10:08:19.299Z,65.55
2018-12-14T10:09:49.340Z,65.74
2018-12-14T10:11:19.724Z,65.68
2018-12-14T10:12:49.875Z,65.24
2018-12-14T10:14:19.864Z,65.97
2018-12-14T10:15:51.011Z,66.63
2018-12-14T10:17:21.634Z,66.74
2018-12-14T10:18:52.221Z,66.29
2018-12-14T10:20:22.476Z,64.11
2018-12-14T10:21:52.551Z,65.47
2018-12-14T10:23:22.598Z,65.93
2018-12-14T10:24:52.621Z,66.02
2018-12-14T10:26:22.617Z,65.51
2018-12-14T10:27:52.566Z,64.55
2018-12-14T10:29:22.535Z,64.71
2018-12-14T10:30:52.525Z,65.48
2018-12-14T10:32:22.615Z,65.20
2018-12-14T10:33:52.587Z,64.66
2018-12-14T10:35:22.630Z,64.77
2018-12-14T10:36:52.714Z,64.35
2018-12-14T10:38:22.812Z,64.83
2018-12-14T10:39:53.766Z,65.84
2018-12-14T10:41:23.808Z,65.90
2018-12-14T10:42:53.809Z,65.48
2018-12-14T10:44:24.026Z,65.76
2018-12-14T10:45:54.217Z,65.89
2018-12-14T10:47:24.265Z,65.63
2018-12-14T10:48:54.305Z,66.39
2018-12-14T10:50:24.327Z,65.60
2018-12-14T10:51:54.564Z,65.33
2018-12-14T10:53:25.270Z,66.45
2018-12-14T10:54:55.633Z,65.06
2018-12-14T10:56:25.702Z,65.44
2018-12-14T10:57:55.779Z,64.02
2018-12-14T10:59:25.963Z,65.35
2018-12-14T11:01:01.888Z,64.78
2018-12-14T11:02:31.880Z,65.44
2018-12-14T11:04:01.951Z,65.12
2018-12-14T11:05:31.981Z,65.26
2018-12-14T11:07:02.037Z,65.34
2018-12-14T11:08:32.458Z,64.11
2018-12-14T11:10:02.724Z,64.44
2018-12-14T11:11:32.766Z,65.08
2018-12-14T11:13:02.784Z,64.73
2018-12-14T11:14:32.855Z,64.45
2018-12-14T11:16:03.033Z,64.66
2018-12-14T11:17:33.136Z,64.38
2018-12-14T11:19:03.506Z,64.53
2018-12-14T11:20:33.656Z,64.01
2018-12-14T11:22:03.980Z,64.99
2018-12-14T11:23:34.124Z,64.76
2018-12-14T11:25:05.204Z,66.37
2018-12-14T11:26:35.517Z,65.25
2018-12-14T11:28:05.923Z,65.34
2018-12-14T11:29:36.058Z,65.17
2018-12-14T11:31:06.117Z,65.04
2018-12-14T11:32:36.312Z,65.17
2018-12-14T11:34:06.968Z,66.21
2018-12-14T11:35:37.005Z,65.58
2018-12-14T11:37:06.959Z,65.76
2018-12-14T11:38:36.937Z,64.80
2018-12-14T11:40:07.978Z,65.90
2018-12-14T11:41:38.046Z,65.66
2018-12-14T11:43:08.244Z,65.99
2018-12-14T11:44:38.305Z,65.27
2018-12-14T11:46:08.353Z,64.70
2018-12-14T11:47:39.099Z,64.32
2018-12-14T11:49:09.192Z,64.09
2018-12-14T11:50:39.219Z,64.72
2018-12-14T11:52:09.202Z,64.41
2018-12-14T11:53:39.234Z,64.35
2018-12-14T11:55:09.835Z,64.68
2018-12-14T11:56:39.883Z,64.59
2018-12-14T11:58:10.114Z,65.40
2018-12-14T11:59:40.166Z,65.54
2018-12-14T12:01:10.483Z,65.19
2018-12-14T12:02:43.222Z,64.83
2018-12-14T12:04:12.625Z,64.83
2018-12-14T12:05:42.811Z,63.30
2018-12-14T12:07:12.820Z,64.54
2018-12-14T12:08:43.016Z,64.98
2018-12-14T12:10:13.067Z,64.27
2018-12-14T12:11:43.219Z,65.43
2018-12-14T12:13:13.371Z,64.32
2018-12-14T12:14:43.383Z,64.17
2018-12-14T12:16:13.436Z,64.42
2018-12-14T12:17:49.256Z,65.86
2018-12-14T12:19:16.010Z,64.46
2018-12-14T12:20:46.041Z,64.64
2018-12-14T12:22:16.078Z,66.36
2018-12-14T12:23:46.119Z,66.03
2018-12-14T12:25:16.103Z,66.51
2018-12-14T12:26:46.233Z,65.42
2018-12-14T12:28:16.348Z,64.55
2018-12-14T12:29:46.679Z,64.44
2018-12-14T12:31:16.766Z,64.16
2018-12-14T12:32:48.159Z,64.56
2018-12-14T12:34:18.346Z,64.20
2018-12-14T12:35:48.413Z,65.25
2018-12-14T12:37:19.104Z,64.82
2018-12-14T12:38:49.116Z,64.61
2018-12-14T12:40:19.089Z,65.07
2018-12-14T12:41:49.075Z,65.69
2018-12-14T12:45:01.262Z,64.69
2018-12-14T12:46:31.607Z,65.26
2018-12-14T12:48:01.882Z,64.44
2018-12-14T12:49:31.790Z,63.93
2018-12-14T12:51:03.348Z,64.99
2018-12-14T12:52:33.701Z,64.26
2018-12-14T12:54:03.795Z,64.17
2018-12-14T12:55:33.960Z,63.98
2018-12-14T12:57:04.056Z,63.71
2018-12-14T12:58:34.034Z,64.39
2018-12-14T13:00:04.257Z,64.46
2018-12-14T13:01:34.362Z,65.26
2018-12-14T13:03:04.410Z,65.51
2018-12-14T13:04:34.751Z,65.48
2018-12-14T13:06:04.762Z,64.64
2018-12-14T13:07:34.850Z,64.98
2018-12-14T13:09:05.987Z,65.25
2018-12-14T13:10:36.008Z,65.18
2018-12-14T13:12:06.070Z,65.97
2018-12-14T13:13:36.093Z,65.73
2018-12-14T13:15:06.506Z,66.50
2018-12-14T13:16:36.595Z,66.36
2018-12-14T13:18:06.598Z,65.88
2018-12-14T13:21:20.011Z,65.48
2018-12-14T13:22:49.900Z,64.64
2018-12-14T13:24:19.863Z,65.43
2018-12-14T13:25:49.858Z,65.86
2018-12-14T13:27:20.492Z,65.57
2018-12-14T13:28:51.811Z,66.83
2018-12-14T13:30:22.090Z,66.13
2018-12-14T13:31:52.088Z,66.11
2018-12-14T13:33:22.695Z,65.87
2018-12-14T13:34:52.672Z,65.57
2018-12-14T13:36:22.978Z,64.73
2018-12-14T13:37:52.953Z,65.99
2018-12-14T13:39:22.965Z,65.05
2018-12-14T13:40:53.052Z,65.50
2018-12-14T13:42:23.305Z,65.42
2018-12-14T13:43:53.319Z,65.63
2018-12-14T13:45:23.331Z,64.65
2018-12-14T13:46:53.388Z,65.10
2018-12-14T13:48:23.525Z,65.50
2018-12-14T13:49:53.694Z,65.35
2018-12-14T13:51:23.709Z,64.56
2018-12-14T13:52:53.723Z,65.70
2018-12-14T13:54:23.733Z,65.56
2018-12-14T13:55:53.779Z,65.12
2018-12-14T13:57:23.807Z,64.92
2018-12-14T13:58:53.792Z,64.14
2018-12-14T14:00:24.310Z,64.46
2018-12-14T14:01:54.338Z,65.47
2018-12-14T14:03:24.355Z,64.62
2018-12-14T14:04:54.314Z,65.82
2018-12-14T14:06:24.337Z,65.36
2018-12-14T14:07:54.432Z,65.82
2018-12-14T14:09:24.629Z,66.12
2018-12-14T14:10:54.617Z,65.26
2018-12-14T14:12:30.634Z,64.82
2018-12-14T14:13:57.293Z,65.15
2018-12-14T14:15:27.729Z,65.32
2018-12-14T14:16:58.031Z,65.40
2018-12-14T14:18:28.191Z,64.80
2018-12-14T14:19:58.484Z,64.90
2018-12-14T14:21:29.245Z,65.98
2018-12-14T14:22:59.468Z,65.10
2018-12-14T14:24:29.433Z,65.15
2018-12-14T14:25:59.483Z,66.09
2018-12-14T14:27:29.645Z,64.67
2018-12-14T14:28:59.557Z,64.93
2018-12-14T14:30:29.486Z,66.15
2018-12-14T14:31:59.443Z,65.53
2018-12-14T14:33:29.390Z,65.86
2018-12-14T14:34:59.523Z,66.19
2018-12-14T14:36:29.485Z,66.16
2018-12-14T14:37:59.492Z,65.16
2018-12-14T14:39:29.387Z,65.27
2018-12-14T14:40:59.420Z,65.41
2018-12-14T14:42:29.444Z,64.63
2018-12-14T14:43:59.349Z,64.49
2018-12-14T14:45:30.271Z,64.09
2018-12-14T14:47:00.305Z,64.38
2018-12-14T14:48:30.276Z,64.35
2018-12-14T14:50:00.231Z,65.83
2018-12-14T14:51:31.101Z,65.51
2018-12-14T14:53:01.116Z,65.43
2018-12-14T14:54:31.110Z,65.44
2018-12-14T14:56:01.005Z,65.29
2018-12-14T14:57:31.402Z,65.56
2018-12-14T14:59:01.339Z,65.08
2018-12-14T15:00:32.254Z,65.76
2018-12-14T15:02:02.318Z,65.88
2018-12-14T15:03:33.270Z,65.09
2018-12-14T15:05:03.864Z,65.22
2018-12-14T15:06:33.903Z,65.69
2018-12-14T15:08:04.020Z,66.24
2018-12-14T15:09:33.942Z,66.01
2018-12-14T15:11:03.846Z,64.90
2018-12-14T15:12:33.785Z,64.40
2018-12-14T15:14:03.951Z,65.17
2018-12-14T15:15:33.880Z,64.79
2018-12-14T15:17:03.800Z,63.96
2018-12-14T15:18:33.771Z,64.05
2018-12-14T15:20:04.394Z,63.73
2018-12-14T15:21:34.770Z,64.35
2018-12-14T15:23:04.847Z,63.75
2018-12-14T15:24:34.761Z,65.03
2018-12-14T15:26:04.785Z,65.01
2018-12-14T15:27:34.840Z,64.09
2018-12-14T15:29:04.896Z,62.80
2018-12-14T15:30:34.856Z,63.40
2018-12-14T15:32:04.863Z,63.97
2018-12-14T15:33:34.831Z,64.65
2018-12-14T15:35:05.180Z,65.63
2018-12-14T15:36:35.127Z,64.17
2018-12-14T15:38:05.180Z,64.47
2018-12-14T15:39:35.103Z,63.31
2018-12-14T15:41:05.215Z,63.54
2018-12-14T15:42:35.148Z,63.92
2018-12-14T15:44:05.239Z,62.88
2018-12-14T15:45:35.466Z,62.63
2018-12-14T15:47:05.552Z,64.14
2018-12-14T15:48:35.658Z,62.93
2018-12-14T15:50:06.507Z,62.75
2018-12-14T15:51:36.426Z,63.55
2018-12-14T15:53:06.619Z,63.31
2018-12-14T15:54:36.498Z,62.63
2018-12-14T15:56:06.407Z,62.95
2018-12-14T15:57:36.331Z,63.28
2018-12-14T15:59:06.383Z,63.45
2018-12-14T16:00:36.565Z,62.60
2018-12-14T16:02:06.814Z,62.66
2018-12-14T16:03:38.049Z,62.12
2018-12-14T16:05:08.206Z,62.71
2018-12-14T16:06:38.090Z,63.37
2018-12-14T16:08:08.006Z,63.23
2018-12-14T16:09:37.895Z,62.02
2018-12-14T16:11:07.903Z,62.94
2018-12-14T16:12:37.793Z,62.35
2018-12-14T16:14:08.054Z,61.91
2018-12-14T16:15:38.034Z,62.45
2018-12-14T16:17:08.741Z,62.81
2018-12-14T16:18:38.962Z,62.72
2018-12-14T16:20:10.086Z,62.31
2018-12-14T16:21:40.052Z,62.75
2018-12-14T16:23:10.037Z,62.36
2018-12-14T16:24:40.219Z,62.32
2018-12-14T16:26:10.727Z,62.35
2018-12-14T16:27:40.919Z,62.41
2018-12-14T16:29:12.877Z,63.50
2018-12-14T16:30:42.950Z,62.99
2018-12-14T16:32:12.858Z,62.32
2018-12-14T16:33:42.891Z,61.72
2018-12-14T16:35:12.839Z,61.93
2018-12-14T16:36:42.863Z,61.22
2018-12-14T16:38:13.135Z,62.47
2018-12-14T16:39:43.116Z,62.35
2018-12-14T16:41:13.355Z,62.61
2018-12-14T16:42:43.455Z,61.64
2018-12-14T16:44:13.547Z,62.67
2018-12-14T16:45:43.481Z,62.64
2018-12-14T16:47:13.613Z,63.51
2018-12-14T16:48:43.712Z,62.40
2018-12-14T16:50:14.661Z,61.81
2018-12-14T16:51:44.649Z,62.10
2018-12-14T16:53:14.809Z,61.67
2018-12-14T16:54:44.731Z,61.67
2018-12-14T16:56:14.880Z,62.10
2018-12-14T16:57:44.818Z,61.63
2018-12-14T16:59:14.991Z,62.63
2018-12-14T17:00:44.999Z,62.30
2018-12-14T17:02:15.190Z,63.06
2018-12-14T17:03:45.407Z,61.29
2018-12-14T17:05:15.460Z,62.95
2018-12-14T17:06:45.528Z,60.74
2018-12-14T17:08:15.631Z,61.23
2018-12-14T17:09:45.743Z,61.55
2018-12-14T17:11:15.783Z,61.91
2018-12-14T17:12:45.821Z,63.07
2018-12-14T17:14:15.758Z,62.83
2018-12-14T17:15:45.671Z,61.92
2018-12-14T17:17:15.620Z,62.25
2018-12-14T17:18:45.692Z,62.01
2018-12-14T17:20:15.685Z,62.38
2018-12-14T17:21:45.599Z,63.00
2018-12-14T17:23:15.533Z,62.29
2018-12-14T17:24:45.478Z,62.31
2018-12-14T17:26:15.410Z,62.49
2018-12-14T17:27:45.355Z,63.29
2018-12-14T17:29:15.371Z,62.56
2018-12-14T17:30:45.416Z,61.73
2018-12-14T17:32:15.359Z,62.01
2018-12-14T17:33:45.307Z,63.36
2018-12-14T17:35:15.268Z,63.96
2018-12-14T17:36:45.195Z,62.52
2018-12-14T17:38:15.132Z,62.76
2018-12-14T17:39:45.274Z,62.64
2018-12-14T17:41:15.212Z,63.25
2018-12-14T17:42:45.594Z,63.41
2018-12-14T17:44:15.736Z,62.46
2018-12-14T17:45:45.715Z,62.53
2018-12-14T17:47:15.687Z,62.47
2018-12-14T17:48:45.664Z,63.06
2018-12-14T17:50:15.713Z,62.35
2018-12-14T17:51:45.775Z,62.20
2018-12-14T17:53:15.734Z,61.61
2018-12-14T17:54:45.714Z,63.85
2018-12-14T17:56:15.648Z,62.61
2018-12-14T17:57:45.604Z,62.64
2018-12-14T17:59:15.701Z,62.25
2018-12-14T18:00:45.773Z,62.25
2018-12-14T18:02:17.001Z,63.50
2018-12-14T18:03:46.945Z,62.48
2018-12-14T18:05:16.896Z,63.16
2018-12-14T18:06:46.872Z,62.49
2018-12-14T18:08:16.940Z,62.89
2018-12-14T18:09:46.899Z,63.51
2018-12-14T18:11:16.918Z,64.06
2018-12-14T18:12:46.990Z,63.77
2018-12-14T18:14:16.956Z,63.64
2018-12-14T18:15:47.031Z,64.87
2018-12-14T18:17:16.947Z,64.31
2018-12-14T18:18:46.865Z,62.58
2018-12-14T18:20:16.938Z,63.51
2018-12-14T18:21:46.841Z,63.75
2018-12-14T18:23:16.759Z,62.88
2018-12-14T18:24:47.272Z,64.33
2018-12-14T18:26:17.166Z,63.18
2018-12-14T18:27:47.103Z,63.95
2018-12-14T18:29:17.059Z,63.16
2018-12-14T18:30:47.078Z,63.15
2018-12-14T18:32:17.220Z,63.99
2018-12-14T18:33:47.159Z,63.44
2018-12-14T18:35:17.159Z,63.09
2018-12-14T18:36:47.075Z,62.49
2018-12-14T18:38:16.972Z,62.69
2018-12-14T18:39:47.108Z,62.64
2018-12-14T18:41:17.164Z,61.83
2018-12-14T18:42:47.080Z,63.90
2018-12-14T18:44:17.016Z,63.67
2018-12-14T18:45:53.000Z,63.75
2018-12-14T18:47:18.903Z,64.18
2018-12-14T18:48:48.830Z,65.04
2018-12-14T18:50:18.824Z,64.21
2018-12-14T18:51:48.731Z,64.78
2018-12-14T18:53:18.642Z,65.21
2018-12-14T18:54:48.767Z,65.14
2018-12-14T18:56:18.850Z,64.63
2018-12-14T18:57:48.803Z,63.92
2018-12-14T18:59:18.974Z,64.64
2018-12-14T19:00:48.980Z,64.09
2018-12-14T19:02:18.948Z,64.69
2018-12-14T19:03:48.872Z,63.69
2018-12-14T19:05:18.855Z,63.77
2018-12-14T19:06:48.963Z,63.58
2018-12-14T19:08:18.906Z,63.88
2018-12-14T19:09:49.348Z,63.56
2018-12-14T19:11:19.433Z,63.96
2018-12-14T19:12:49.458Z,64.25
2018-12-14T19:14:19.634Z,63.66
2018-12-14T19:15:49.751Z,65.25
2018-12-14T19:17:19.821Z,63.92
2018-12-14T19:18:49.847Z,63.68
2018-12-14T19:20:19.944Z,65.35
2018-12-14T19:21:49.975Z,64.61
2018-12-14T19:23:21.405Z,64.90
2018-12-14T19:24:51.574Z,65.09
2018-12-14T19:26:21.582Z,64.45
2018-12-14T19:27:51.502Z,65.55
2018-12-14T19:29:21.490Z,65.33
2018-12-14T19:30:51.407Z,66.26
2018-12-14T19:32:21.327Z,65.56
2018-12-14T19:33:51.254Z,66.11
2018-12-14T19:35:21.261Z,66.08
2018-12-14T19:36:51.181Z,65.49
2018-12-14T19:38:21.227Z,66.22
2018-12-14T19:39:51.259Z,64.29
2018-12-14T19:41:21.804Z,64.95
2018-12-14T19:42:52.017Z,64.75
2018-12-14T19:44:22.367Z,65.22
2018-12-14T19:45:52.296Z,64.25
2018-12-14T19:47:22.534Z,66.31
2018-12-14T19:48:52.531Z,66.08
2018-12-14T19:50:22.596Z,66.11
2018-12-14T19:51:52.811Z,65.94
2018-12-14T19:53:22.712Z,65.88
2018-12-14T19:54:54.400Z,66.36
2018-12-14T19:56:24.298Z,65.78
2018-12-14T19:57:54.507Z,65.58
2018-12-14T19:59:24.768Z,66.25
2018-12-14T20:00:54.673Z,66.54
2018-12-14T20:02:24.789Z,65.67
2018-12-14T20:03:54.687Z,66.01
2018-12-14T20:05:24.708Z,65.96
2018-12-14T20:06:54.812Z,65.72
2018-12-14T20:08:24.823Z,66.27
2018-12-14T20:09:55.072Z,64.75
2018-12-14T20:11:25.600Z,66.15
2018-12-14T20:12:55.609Z,64.67
2018-12-14T20:14:25.573Z,63.97
2018-12-14T20:15:57.652Z,64.91
2018-12-14T20:17:27.976Z,65.33